Nasco Pearl — VRHS2 — position and weather

sailwx.info

Track history (hours):
 
Tides and Currents Weather Stations Pressure Air Temp Water Temp Dewpoint Dewpoint Depression Visibility Wind Speed Wind Dir Waves Ship Positions

Nasco Pearl

Last reported at 2017-Apr-09 11:38 UTC. Time now 2017-Apr-28 02:28 UTC.
Position N 01°14' E 103°26'.
Warning: this ship's position is 18 days out of date.

Length 189 m; draft 12.3 m.

Type: Cargo ship. MMSI: 477982400.

Date/timePositionNaut miles runAvg speedWind from/ knotsBaromVisibWave heightAir tempDewpointWater temp
2017-Apr-09 11:38N 01°14' E 103°26'212.5
2017-Apr-09 11:30N 01°14' E 103°27'613.0
2017-Apr-09 11:00N 01°13' E 103°34'612.5
2017-Apr-09 10:30N 01°11' E 103°40'611.4
2017-Apr-09 10:00N 01°09' E 103°45'611.5
2017-Apr-09 09:31N 01°11' E 103°50'510.8
2017-Apr-09 09:00N 01°14' E 103°55'4 8.3
2017-Apr-09 08:30N 01°16' E 103°58'2 1.0
2017-Apr-09 06:40N 01°17' E 103°60'0 0.0
2017-Apr-09 06:10N 01°17' E 103°60'0 0.0
2017-Apr-09 05:52N 01°17' E 103°60'0 0.0
2017-Apr-09 05:22N 01°17' E 103°60'0 0.0
2017-Apr-08 17:57N 01°17' E 103°59'2 2.6
2017-Apr-08 17:20N 01°16' E 103°60'  
Track history (hours):
 
Tides and Currents Weather Stations Pressure Air Temp Water Temp Dewpoint Dewpoint Depression Visibility Wind Speed Wind Dir Waves Ship Positions

Nasco Pearl

Last reported at 2017-Apr-09 11:38 UTC. Time now 2017-Apr-28 02:28 UTC.
Position N 01°14' E 103°26'.
Warning: this ship's position is 18 days out of date.

Length 189 m; draft 12.3 m.

Type: Cargo ship. MMSI: 477982400.

Date/timePositionNaut miles runAvg speedWind from/ knotsBaromVisibWave heightAir tempDewpointWater temp
2017-Apr-09 11:38N 01°14' E 103°26'212.5
2017-Apr-09 11:30N 01°14' E 103°27'613.0
2017-Apr-09 11:00N 01°13' E 103°34'612.5
2017-Apr-09 10:30N 01°11' E 103°40'611.4
2017-Apr-09 10:00N 01°09' E 103°45'611.5
2017-Apr-09 09:31N 01°11' E 103°50'510.8
2017-Apr-09 09:00N 01°14' E 103°55'4 8.3
2017-Apr-09 08:30N 01°16' E 103°58'2 1.0
2017-Apr-09 06:40N 01°17' E 103°60'0 0.0
2017-Apr-09 06:10N 01°17' E 103°60'0 0.0
2017-Apr-09 05:52N 01°17' E 103°60'0 0.0
2017-Apr-09 05:22N 01°17' E 103°60'0 0.0
2017-Apr-08 17:57N 01°17' E 103°59'2 2.6
2017-Apr-08 17:20N 01°16' E 103°60'  

Dump ship's entire track history